sensor_id;sensor_type;location;lat;lon;timestamp;P1;durP1;ratioP1;P2;durP2;ratioP2
3795;SDS011;1913;50.660;7.834;2024-02-15T00:00:20;24.47;;;12.03;;
3795;SDS011;1913;50.660;7.834;2024-02-15T00:02:45;18.30;;;11.10;;
3795;SDS011;1913;50.660;7.834;2024-02-15T00:05:11;19.17;;;11.40;;
3795;SDS011;1913;50.660;7.834;2024-02-15T00:07:36;17.33;;;11.57;;
3795;SDS011;1913;50.660;7.834;2024-02-15T00:10:02;16.13;;;10.80;;
3795;SDS011;1913;50.660;7.834;2024-02-15T00:12:29;16.50;;;10.00;;
3795;SDS011;1913;50.660;7.834;2024-02-15T00:14:54;21.63;;;9.37;;
3795;SDS011;1913;50.660;7.834;2024-02-15T00:17:23;15.33;;;9.83;;
3795;SDS011;1913;50.660;7.834;2024-02-15T00:19:48;16.30;;;10.17;;
3795;SDS011;1913;50.660;7.834;2024-02-15T00:22:13;24.07;;;10.80;;
3795;SDS011;1913;50.660;7.834;2024-02-15T00:24:38;17.70;;;10.40;;
3795;SDS011;1913;50.660;7.834;2024-02-15T00:27:05;13.13;;;9.20;;
3795;SDS011;1913;50.660;7.834;2024-02-15T00:29:30;18.37;;;10.47;;
3795;SDS011;1913;50.660;7.834;2024-02-15T00:31:56;19.93;;;10.87;;
3795;SDS011;1913;50.660;7.834;2024-02-15T00:34:21;22.20;;;10.37;;
3795;SDS011;1913;50.660;7.834;2024-02-15T00:36:47;14.60;;;9.90;;
3795;SDS011;1913;50.660;7.834;2024-02-15T00:39:12;15.60;;;8.80;;
3795;SDS011;1913;50.660;7.834;2024-02-15T00:41:43;17.23;;;9.53;;
3795;SDS011;1913;50.660;7.834;2024-02-15T00:44:08;21.57;;;9.73;;
3795;SDS011;1913;50.660;7.834;2024-02-15T00:46:35;16.20;;;9.60;;
3795;SDS011;1913;50.660;7.834;2024-02-15T00:49:01;19.20;;;10.07;;
3795;SDS011;1913;50.660;7.834;2024-02-15T00:51:26;14.97;;;10.00;;
3795;SDS011;1913;50.660;7.834;2024-02-15T00:53:51;13.27;;;8.70;;
3795;SDS011;1913;50.660;7.834;2024-02-15T00:56:16;15.47;;;10.50;;
3795;SDS011;1913;50.660;7.834;2024-02-15T00:58:42;14.57;;;10.20;;
3795;SDS011;1913;50.660;7.834;2024-02-15T01:01:07;17.27;;;10.10;;
3795;SDS011;1913;50.660;7.834;2024-02-15T01:03:33;18.83;;;11.10;;
3795;SDS011;1913;50.660;7.834;2024-02-15T01:05:59;24.90;;;9.87;;
3795;SDS011;1913;50.660;7.834;2024-02-15T01:08:24;22.03;;;10.13;;
3795;SDS011;1913;50.660;7.834;2024-02-15T01:10:50;20.17;;;10.07;;
3795;SDS011;1913;50.660;7.834;2024-02-15T01:13:15;15.30;;;9.67;;
3795;SDS011;1913;50.660;7.834;2024-02-15T01:15:40;22.03;;;10.33;;
3795;SDS011;1913;50.660;7.834;2024-02-15T01:18:06;18.73;;;10.00;;
3795;SDS011;1913;50.660;7.834;2024-02-15T01:20:31;19.37;;;9.30;;
3795;SDS011;1913;50.660;7.834;2024-02-15T01:22:56;15.67;;;9.40;;
3795;SDS011;1913;50.660;7.834;2024-02-15T01:25:21;13.27;;;9.00;;
3795;SDS011;1913;50.660;7.834;2024-02-15T01:27:47;13.30;;;9.30;;
3795;SDS011;1913;50.660;7.834;2024-02-15T01:30:13;18.77;;;9.70;;
3795;SDS011;1913;50.660;7.834;2024-02-15T01:32:38;13.63;;;8.70;;
3795;SDS011;1913;50.660;7.834;2024-02-15T01:35:06;17.20;;;8.80;;
3795;SDS011;1913;50.660;7.834;2024-02-15T01:37:32;20.23;;;9.40;;
3795;SDS011;1913;50.660;7.834;2024-02-15T01:39:58;11.97;;;8.20;;
3795;SDS011;1913;50.660;7.834;2024-02-15T01:42:23;14.77;;;9.03;;
3795;SDS011;1913;50.660;7.834;2024-02-15T01:44:48;17.77;;;9.03;;
3795;SDS011;1913;50.660;7.834;2024-02-15T01:47:14;21.73;;;9.83;;
3795;SDS011;1913;50.660;7.834;2024-02-15T01:49:41;14.97;;;9.47;;
3795;SDS011;1913;50.660;7.834;2024-02-15T01:52:06;14.70;;;8.70;;
3795;SDS011;1913;50.660;7.834;2024-02-15T01:54:34;15.53;;;8.73;;
3795;SDS011;1913;50.660;7.834;2024-02-15T01:57:00;20.77;;;8.73;;
3795;SDS011;1913;50.660;7.834;2024-02-15T01:59:27;15.13;;;8.47;;
3795;SDS011;1913;50.660;7.834;2024-02-15T02:01:52;17.40;;;8.10;;
3795;SDS011;1913;50.660;7.834;2024-02-15T02:04:17;17.63;;;8.73;;
3795;SDS011;1913;50.660;7.834;2024-02-15T02:06:42;16.00;;;8.00;;
3795;SDS011;1913;50.660;7.834;2024-02-15T02:09:10;13.47;;;8.60;;
3795;SDS011;1913;50.660;7.834;2024-02-15T02:11:37;19.10;;;9.20;;
3795;SDS011;1913;50.660;7.834;2024-02-15T02:14:03;15.90;;;8.50;;
3795;SDS011;1913;50.660;7.834;2024-02-15T02:16:29;14.87;;;7.60;;
3795;SDS011;1913;50.660;7.834;2024-02-15T02:18:56;14.43;;;9.33;;
3795;SDS011;1913;50.660;7.834;2024-02-15T02:21:22;13.93;;;8.43;;
3795;SDS011;1913;50.660;7.834;2024-02-15T02:23:50;20.53;;;8.70;;
3795;SDS011;1913;50.660;7.834;2024-02-15T02:26:17;13.47;;;8.10;;
3795;SDS011;1913;50.660;7.834;2024-02-15T02:28:43;13.77;;;8.03;;
3795;SDS011;1913;50.660;7.834;2024-02-15T02:31:08;14.97;;;9.43;;
3795;SDS011;1913;50.660;7.834;2024-02-15T02:33:36;11.87;;;8.07;;
3795;SDS011;1913;50.660;7.834;2024-02-15T02:36:01;12.13;;;8.40;;
3795;SDS011;1913;50.660;7.834;2024-02-15T02:38:27;15.97;;;8.50;;
3795;SDS011;1913;50.660;7.834;2024-02-15T02:40:53;18.90;;;8.63;;
3795;SDS011;1913;50.660;7.834;2024-02-15T02:43:18;16.60;;;9.60;;
3795;SDS011;1913;50.660;7.834;2024-02-15T02:45:44;13.63;;;9.30;;
3795;SDS011;1913;50.660;7.834;2024-02-15T02:48:10;18.63;;;9.77;;
3795;SDS011;1913;50.660;7.834;2024-02-15T02:50:36;15.40;;;9.70;;
3795;SDS011;1913;50.660;7.834;2024-02-15T02:53:02;15.83;;;8.70;;
3795;SDS011;1913;50.660;7.834;2024-02-15T02:55:27;13.47;;;9.07;;
3795;SDS011;1913;50.660;7.834;2024-02-15T02:57:52;19.10;;;8.93;;
3795;SDS011;1913;50.660;7.834;2024-02-15T03:00:18;17.93;;;8.63;;
3795;SDS011;1913;50.660;7.834;2024-02-15T03:02:43;15.40;;;9.90;;
3795;SDS011;1913;50.660;7.834;2024-02-15T03:05:09;21.13;;;9.83;;
3795;SDS011;1913;50.660;7.834;2024-02-15T03:07:36;16.40;;;9.50;;
3795;SDS011;1913;50.660;7.834;2024-02-15T03:10:02;20.23;;;10.00;;
3795;SDS011;1913;50.660;7.834;2024-02-15T03:12:33;13.50;;;9.33;;
3795;SDS011;1913;50.660;7.834;2024-02-15T03:15:00;13.03;;;8.87;;
3795;SDS011;1913;50.660;7.834;2024-02-15T03:17:26;13.60;;;8.83;;
3795;SDS011;1913;50.660;7.834;2024-02-15T03:19:52;14.43;;;8.60;;
3795;SDS011;1913;50.660;7.834;2024-02-15T03:22:17;12.80;;;7.80;;
3795;SDS011;1913;50.660;7.834;2024-02-15T03:24:42;14.57;;;8.37;;
3795;SDS011;1913;50.660;7.834;2024-02-15T03:27:08;13.00;;;8.37;;
3795;SDS011;1913;50.660;7.834;2024-02-15T03:29:35;13.40;;;7.53;;
3795;SDS011;1913;50.660;7.834;2024-02-15T03:32:01;15.03;;;7.83;;
3795;SDS011;1913;50.660;7.834;2024-02-15T03:34:26;12.73;;;7.20;;
3795;SDS011;1913;50.660;7.834;2024-02-15T03:36:51;14.30;;;7.57;;
3795;SDS011;1913;50.660;7.834;2024-02-15T03:39:19;18.47;;;7.40;;
3795;SDS011;1913;50.660;7.834;2024-02-15T03:41:44;11.33;;;7.33;;
3795;SDS011;1913;50.660;7.834;2024-02-15T03:44:11;15.37;;;7.03;;
3795;SDS011;1913;50.660;7.834;2024-02-15T03:46:36;14.30;;;7.40;;
3795;SDS011;1913;50.660;7.834;2024-02-15T03:49:01;12.47;;;6.60;;
3795;SDS011;1913;50.660;7.834;2024-02-15T03:51:26;17.13;;;6.83;;
3795;SDS011;1913;50.660;7.834;2024-02-15T03:53:52;11.30;;;7.00;;
3795;SDS011;1913;50.660;7.834;2024-02-15T03:56:17;11.83;;;6.57;;
3795;SDS011;1913;50.660;7.834;2024-02-15T03:58:43;14.17;;;7.40;;
3795;SDS011;1913;50.660;7.834;2024-02-15T04:01:08;9.67;;;7.67;;
3795;SDS011;1913;50.660;7.834;2024-02-15T04:03:34;14.90;;;7.63;;
3795;SDS011;1913;50.660;7.834;2024-02-15T04:06:00;16.97;;;9.97;;
3795;SDS011;1913;50.660;7.834;2024-02-15T04:08:25;15.63;;;8.00;;
3795;SDS011;1913;50.660;7.834;2024-02-15T04:10:50;17.97;;;9.00;;
3795;SDS011;1913;50.660;7.834;2024-02-15T04:13:16;12.90;;;8.93;;
3795;SDS011;1913;50.660;7.834;2024-02-15T04:15:41;13.20;;;8.60;;
3795;SDS011;1913;50.660;7.834;2024-02-15T04:18:08;16.10;;;8.83;;
3795;SDS011;1913;50.660;7.834;2024-02-15T04:20:35;14.60;;;9.30;;
3795;SDS011;1913;50.660;7.834;2024-02-15T04:23:01;19.43;;;9.57;;
3795;SDS011;1913;50.660;7.834;2024-02-15T04:25:26;17.43;;;8.33;;
3795;SDS011;1913;50.660;7.834;2024-02-15T04:27:53;10.53;;;7.97;;
3795;SDS011;1913;50.660;7.834;2024-02-15T04:30:18;15.50;;;8.87;;
3795;SDS011;1913;50.660;7.834;2024-02-15T04:32:45;20.97;;;7.70;;
3795;SDS011;1913;50.660;7.834;2024-02-15T04:35:10;11.50;;;7.23;;
3795;SDS011;1913;50.660;7.834;2024-02-15T04:37:36;12.43;;;7.40;;
3795;SDS011;1913;50.660;7.834;2024-02-15T04:40:02;12.23;;;7.03;;
3795;SDS011;1913;50.660;7.834;2024-02-15T04:42:34;13.27;;;7.10;;
3795;SDS011;1913;50.660;7.834;2024-02-15T04:45:01;13.70;;;6.40;;
3795;SDS011;1913;50.660;7.834;2024-02-15T04:47:26;11.87;;;6.60;;
3795;SDS011;1913;50.660;7.834;2024-02-15T04:49:51;12.87;;;7.27;;
3795;SDS011;1913;50.660;7.834;2024-02-15T04:52:16;14.23;;;6.83;;
3795;SDS011;1913;50.660;7.834;2024-02-15T04:54:42;11.37;;;7.63;;
3795;SDS011;1913;50.660;7.834;2024-02-15T04:57:07;22.43;;;9.07;;
3795;SDS011;1913;50.660;7.834;2024-02-15T04:59:36;17.80;;;7.93;;
3795;SDS011;1913;50.660;7.834;2024-02-15T05:02:02;17.50;;;7.40;;
3795;SDS011;1913;50.660;7.834;2024-02-15T05:04:27;23.33;;;8.20;;
3795;SDS011;1913;50.660;7.834;2024-02-15T05:06:52;21.60;;;7.53;;
3795;SDS011;1913;50.660;7.834;2024-02-15T05:09:18;18.00;;;7.40;;
3795;SDS011;1913;50.660;7.834;2024-02-15T05:11:43;19.80;;;7.70;;
3795;SDS011;1913;50.660;7.834;2024-02-15T05:14:15;20.23;;;7.90;;
3795;SDS011;1913;50.660;7.834;2024-02-15T05:16:48;17.47;;;8.90;;
3795;SDS011;1913;50.660;7.834;2024-02-15T05:19:16;15.57;;;7.17;;
3795;SDS011;1913;50.660;7.834;2024-02-15T05:21:42;20.33;;;8.73;;
3795;SDS011;1913;50.660;7.834;2024-02-15T05:24:10;22.37;;;8.40;;
3795;SDS011;1913;50.660;7.834;2024-02-15T05:26:36;17.63;;;8.20;;
3795;SDS011;1913;50.660;7.834;2024-02-15T05:29:01;15.60;;;8.60;;
3795;SDS011;1913;50.660;7.834;2024-02-15T05:31:26;13.70;;;7.63;;
3795;SDS011;1913;50.660;7.834;2024-02-15T05:33:52;16.47;;;7.83;;
3795;SDS011;1913;50.660;7.834;2024-02-15T05:36:18;14.23;;;8.00;;
3795;SDS011;1913;50.660;7.834;2024-02-15T05:38:46;19.97;;;8.63;;
3795;SDS011;1913;50.660;7.834;2024-02-15T05:41:12;17.60;;;7.80;;
3795;SDS011;1913;50.660;7.834;2024-02-15T05:43:38;23.33;;;10.07;;
3795;SDS011;1913;50.660;7.834;2024-02-15T05:46:03;14.30;;;7.80;;
3795;SDS011;1913;50.660;7.834;2024-02-15T05:48:29;18.60;;;8.30;;
3795;SDS011;1913;50.660;7.834;2024-02-15T05:50:57;18.17;;;8.60;;
3795;SDS011;1913;50.660;7.834;2024-02-15T05:53:24;16.37;;;9.70;;
3795;SDS011;1913;50.660;7.834;2024-02-15T05:55:49;20.93;;;8.77;;
3795;SDS011;1913;50.660;7.834;2024-02-15T05:58:15;17.87;;;8.60;;
3795;SDS011;1913;50.660;7.834;2024-02-15T06:00:40;14.23;;;8.27;;
3795;SDS011;1913;50.660;7.834;2024-02-15T06:03:05;12.27;;;7.37;;
3795;SDS011;1913;50.660;7.834;2024-02-15T06:05:31;15.60;;;7.63;;
3795;SDS011;1913;50.660;7.834;2024-02-15T06:07:57;14.57;;;7.60;;
3795;SDS011;1913;50.660;7.834;2024-02-15T06:10:23;13.23;;;7.37;;
3795;SDS011;1913;50.660;7.834;2024-02-15T06:12:49;22.63;;;7.33;;
3795;SDS011;1913;50.660;7.834;2024-02-15T06:15:14;15.10;;;7.37;;
3795;SDS011;1913;50.660;7.834;2024-02-15T06:17:42;14.63;;;7.93;;
3795;SDS011;1913;50.660;7.834;2024-02-15T06:20:10;18.40;;;8.60;;
3795;SDS011;1913;50.660;7.834;2024-02-15T06:22:37;19.57;;;7.20;;
3795;SDS011;1913;50.660;7.834;2024-02-15T06:25:03;9.97;;;6.67;;
3795;SDS011;1913;50.660;7.834;2024-02-15T06:27:28;12.63;;;7.23;;
3795;SDS011;1913;50.660;7.834;2024-02-15T06:29:53;18.93;;;7.50;;
3795;SDS011;1913;50.660;7.834;2024-02-15T06:32:37;12.77;;;6.53;;
3795;SDS011;1913;50.660;7.834;2024-02-15T06:35:21;15.20;;;6.57;;
3795;SDS011;1913;50.660;7.834;2024-02-15T06:38:05;15.20;;;6.17;;
3795;SDS011;1913;50.660;7.834;2024-02-15T06:40:48;13.60;;;6.57;;
3795;SDS011;1913;50.660;7.834;2024-02-15T06:43:14;11.27;;;5.50;;
3795;SDS011;1913;50.660;7.834;2024-02-15T06:45:39;14.30;;;5.67;;
3795;SDS011;1913;50.660;7.834;2024-02-15T06:48:07;11.83;;;5.80;;
3795;SDS011;1913;50.660;7.834;2024-02-15T06:50:32;14.83;;;6.20;;
3795;SDS011;1913;50.660;7.834;2024-02-15T06:52:57;18.40;;;5.27;;
3795;SDS011;1913;50.660;7.834;2024-02-15T06:55:22;11.03;;;5.17;;
3795;SDS011;1913;50.660;7.834;2024-02-15T06:57:48;12.00;;;5.30;;
3795;SDS011;1913;50.660;7.834;2024-02-15T07:00:13;15.53;;;5.07;;
3795;SDS011;1913;50.660;7.834;2024-02-15T07:02:40;8.80;;;4.47;;
3795;SDS011;1913;50.660;7.834;2024-02-15T07:05:06;13.73;;;5.03;;
3795;SDS011;1913;50.660;7.834;2024-02-15T07:07:31;11.70;;;5.10;;
3795;SDS011;1913;50.660;7.834;2024-02-15T07:09:57;9.87;;;4.33;;
3795;SDS011;1913;50.660;7.834;2024-02-15T07:12:22;9.20;;;4.10;;
3795;SDS011;1913;50.660;7.834;2024-02-15T07:14:48;10.63;;;5.10;;
3795;SDS011;1913;50.660;7.834;2024-02-15T07:17:13;9.50;;;4.60;;
3795;SDS011;1913;50.660;7.834;2024-02-15T07:19:44;14.67;;;4.50;;
3795;SDS011;1913;50.660;7.834;2024-02-15T07:22:10;8.00;;;4.67;;
3795;SDS011;1913;50.660;7.834;2024-02-15T07:24:35;9.87;;;4.53;;
3795;SDS011;1913;50.660;7.834;2024-02-15T07:27:03;10.50;;;3.83;;
3795;SDS011;1913;50.660;7.834;2024-02-15T07:29:29;8.20;;;2.90;;
3795;SDS011;1913;50.660;7.834;2024-02-15T07:31:56;14.00;;;3.73;;
3795;SDS011;1913;50.660;7.834;2024-02-15T07:34:22;9.67;;;3.50;;
3795;SDS011;1913;50.660;7.834;2024-02-15T07:36:47;10.00;;;3.17;;
3795;SDS011;1913;50.660;7.834;2024-02-15T07:39:12;14.23;;;3.50;;
3795;SDS011;1913;50.660;7.834;2024-02-15T07:41:48;6.73;;;3.67;;
3795;SDS011;1913;50.660;7.834;2024-02-15T07:44:14;9.40;;;2.83;;
3795;SDS011;1913;50.660;7.834;2024-02-15T07:46:39;6.70;;;3.30;;
3795;SDS011;1913;50.660;7.834;2024-02-15T07:49:05;6.70;;;2.93;;
3795;SDS011;1913;50.660;7.834;2024-02-15T07:51:31;10.00;;;2.90;;
3795;SDS011;1913;50.660;7.834;2024-02-15T07:53:56;9.90;;;3.63;;
3795;SDS011;1913;50.660;7.834;2024-02-15T07:56:22;6.37;;;2.60;;
3795;SDS011;1913;50.660;7.834;2024-02-15T07:58:48;11.63;;;3.17;;
3795;SDS011;1913;50.660;7.834;2024-02-15T08:01:13;6.67;;;3.07;;
3795;SDS011;1913;50.660;7.834;2024-02-15T08:03:39;7.53;;;2.63;;
3795;SDS011;1913;50.660;7.834;2024-02-15T08:06:09;6.37;;;2.60;;
3795;SDS011;1913;50.660;7.834;2024-02-15T08:08:34;5.90;;;2.70;;
3795;SDS011;1913;50.660;7.834;2024-02-15T08:11:01;7.47;;;2.37;;
3795;SDS011;1913;50.660;7.834;2024-02-15T08:13:27;6.13;;;2.27;;
3795;SDS011;1913;50.660;7.834;2024-02-15T08:15:54;7.37;;;2.37;;
3795;SDS011;1913;50.660;7.834;2024-02-15T08:18:19;9.80;;;2.70;;
3795;SDS011;1913;50.660;7.834;2024-02-15T08:20:45;7.47;;;2.10;;
3795;SDS011;1913;50.660;7.834;2024-02-15T08:23:10;8.93;;;2.50;;
3795;SDS011;1913;50.660;7.834;2024-02-15T08:25:37;11.00;;;2.77;;
3795;SDS011;1913;50.660;7.834;2024-02-15T08:28:03;8.90;;;2.07;;
3795;SDS011;1913;50.660;7.834;2024-02-15T08:30:30;4.80;;;2.13;;
3795;SDS011;1913;50.660;7.834;2024-02-15T08:32:55;12.50;;;2.43;;
3795;SDS011;1913;50.660;7.834;2024-02-15T08:35:20;7.30;;;2.37;;
3795;SDS011;1913;50.660;7.834;2024-02-15T08:37:46;5.20;;;2.07;;
3795;SDS011;1913;50.660;7.834;2024-02-15T08:40:13;9.57;;;3.07;;
3795;SDS011;1913;50.660;7.834;2024-02-15T08:42:40;5.60;;;2.20;;
3795;SDS011;1913;50.660;7.834;2024-02-15T08:45:06;12.80;;;2.53;;
3795;SDS011;1913;50.660;7.834;2024-02-15T08:47:34;3.57;;;2.00;;
3795;SDS011;1913;50.660;7.834;2024-02-15T08:49:59;8.30;;;2.37;;
3795;SDS011;1913;50.660;7.834;2024-02-15T08:52:25;9.43;;;2.67;;
3795;SDS011;1913;50.660;7.834;2024-02-15T08:54:51;7.30;;;2.23;;
3795;SDS011;1913;50.660;7.834;2024-02-15T08:57:17;7.63;;;2.60;;
3795;SDS011;1913;50.660;7.834;2024-02-15T08:59:44;8.90;;;2.00;;
3795;SDS011;1913;50.660;7.834;2024-02-15T09:02:09;6.03;;;2.10;;
3795;SDS011;1913;50.660;7.834;2024-02-15T09:04:34;3.53;;;2.10;;
3795;SDS011;1913;50.660;7.834;2024-02-15T09:06:59;4.60;;;2.57;;
3795;SDS011;1913;50.660;7.834;2024-02-15T09:09:29;5.30;;;2.23;;
3795;SDS011;1913;50.660;7.834;2024-02-15T09:11:55;4.80;;;2.23;;
3795;SDS011;1913;50.660;7.834;2024-02-15T09:14:20;9.33;;;2.43;;
3795;SDS011;1913;50.660;7.834;2024-02-15T09:16:45;6.57;;;2.50;;
3795;SDS011;1913;50.660;7.834;2024-02-15T09:19:10;7.60;;;2.30;;
3795;SDS011;1913;50.660;7.834;2024-02-15T09:21:36;7.33;;;2.43;;
3795;SDS011;1913;50.660;7.834;2024-02-15T09:24:01;7.20;;;2.00;;
3795;SDS011;1913;50.660;7.834;2024-02-15T09:26:27;12.03;;;2.70;;
3795;SDS011;1913;50.660;7.834;2024-02-15T09:28:52;3.53;;;2.17;;
3795;SDS011;1913;50.660;7.834;2024-02-15T09:31:18;3.97;;;1.90;;
3795;SDS011;1913;50.660;7.834;2024-02-15T09:33:43;4.73;;;1.87;;
3795;SDS011;1913;50.660;7.834;2024-02-15T09:36:10;3.30;;;2.03;;
3795;SDS011;1913;50.660;7.834;2024-02-15T09:38:37;6.10;;;2.17;;
3795;SDS011;1913;50.660;7.834;2024-02-15T09:41:02;6.43;;;2.40;;
3795;SDS011;1913;50.660;7.834;2024-02-15T09:43:28;2.73;;;2.07;;
3795;SDS011;1913;50.660;7.834;2024-02-15T09:45:55;6.13;;;2.30;;
3795;SDS011;1913;50.660;7.834;2024-02-15T09:48:23;4.40;;;2.00;;
3795;SDS011;1913;50.660;7.834;2024-02-15T09:50:50;9.93;;;2.03;;
3795;SDS011;1913;50.660;7.834;2024-02-15T09:53:18;4.33;;;2.20;;
3795;SDS011;1913;50.660;7.834;2024-02-15T09:55:46;9.63;;;2.10;;
3795;SDS011;1913;50.660;7.834;2024-02-15T09:58:11;7.13;;;1.80;;
3795;SDS011;1913;50.660;7.834;2024-02-15T10:00:37;4.90;;;2.17;;
3795;SDS011;1913;50.660;7.834;2024-02-15T10:03:03;5.40;;;1.93;;
3795;SDS011;1913;50.660;7.834;2024-02-15T10:05:30;4.67;;;1.77;;
3795;SDS011;1913;50.660;7.834;2024-02-15T10:07:56;5.70;;;2.03;;
3795;SDS011;1913;50.660;7.834;2024-02-15T10:10:22;5.30;;;2.27;;
3795;SDS011;1913;50.660;7.834;2024-02-15T10:12:50;5.37;;;1.97;;
3795;SDS011;1913;50.660;7.834;2024-02-15T10:15:36;6.63;;;2.17;;
3795;SDS011;1913;50.660;7.834;2024-02-15T10:18:05;5.20;;;2.07;;
3795;SDS011;1913;50.660;7.834;2024-02-15T10:20:35;2.67;;;1.70;;
3795;SDS011;1913;50.660;7.834;2024-02-15T10:25:32;4.53;;;2.10;;
3795;SDS011;1913;50.660;7.834;2024-02-15T10:30:31;6.50;;;2.50;;
3795;SDS011;1913;50.660;7.834;2024-02-15T10:32:57;4.93;;;2.00;;
3795;SDS011;1913;50.660;7.834;2024-02-15T10:35:23;4.53;;;2.03;;
3795;SDS011;1913;50.660;7.834;2024-02-15T10:37:48;3.03;;;1.80;;
3795;SDS011;1913;50.660;7.834;2024-02-15T10:40:18;8.77;;;2.20;;
3795;SDS011;1913;50.660;7.834;2024-02-15T10:42:44;1.73;;;1.40;;
3795;SDS011;1913;50.660;7.834;2024-02-15T10:45:11;6.23;;;2.03;;
3795;SDS011;1913;50.660;7.834;2024-02-15T10:47:37;4.63;;;2.30;;
3795;SDS011;1913;50.660;7.834;2024-02-15T10:50:03;3.50;;;2.07;;
3795;SDS011;1913;50.660;7.834;2024-02-15T10:52:30;6.10;;;1.83;;
3795;SDS011;1913;50.660;7.834;2024-02-15T10:55:03;7.43;;;1.70;;
3795;SDS011;1913;50.660;7.834;2024-02-15T10:57:29;3.97;;;1.77;;
3795;SDS011;1913;50.660;7.834;2024-02-15T10:59:56;5.50;;;1.97;;
3795;SDS011;1913;50.660;7.834;2024-02-15T11:04:53;4.50;;;2.00;;
3795;SDS011;1913;50.660;7.834;2024-02-15T11:07:25;9.60;;;2.40;;
3795;SDS011;1913;50.660;7.834;2024-02-15T11:09:54;7.23;;;2.10;;
3795;SDS011;1913;50.660;7.834;2024-02-15T11:12:21;5.70;;;2.00;;
3795;SDS011;1913;50.660;7.834;2024-02-15T11:14:48;4.53;;;2.23;;
3795;SDS011;1913;50.660;7.834;2024-02-15T11:17:44;4.63;;;1.83;;
3795;SDS011;1913;50.660;7.834;2024-02-15T11:19:59;7.90;;;2.33;;
3795;SDS011;1913;50.660;7.834;2024-02-15T11:22:24;9.87;;;2.20;;
3795;SDS011;1913;50.660;7.834;2024-02-15T11:24:51;9.77;;;2.30;;
3795;SDS011;1913;50.660;7.834;2024-02-15T11:27:26;10.60;;;2.10;;
3795;SDS011;1913;50.660;7.834;2024-02-15T11:29:59;6.20;;;2.13;;
3795;SDS011;1913;50.660;7.834;2024-02-15T11:32:38;5.67;;;2.10;;
3795;SDS011;1913;50.660;7.834;2024-02-15T11:38:00;7.43;;;2.40;;
3795;SDS011;1913;50.660;7.834;2024-02-15T11:40:28;3.10;;;2.20;;
3795;SDS011;1913;50.660;7.834;2024-02-15T11:43:00;4.40;;;2.10;;
3795;SDS011;1913;50.660;7.834;2024-02-15T11:45:25;4.90;;;2.13;;
3795;SDS011;1913;50.660;7.834;2024-02-15T11:47:51;2.03;;;1.60;;
3795;SDS011;1913;50.660;7.834;2024-02-15T11:50:18;6.53;;;2.47;;
3795;SDS011;1913;50.660;7.834;2024-02-15T11:52:47;7.13;;;2.37;;
3795;SDS011;1913;50.660;7.834;2024-02-15T11:55:14;4.37;;;2.27;;
3795;SDS011;1913;50.660;7.834;2024-02-15T11:57:44;3.90;;;2.10;;
3795;SDS011;1913;50.660;7.834;2024-02-15T12:00:25;4.70;;;1.73;;
3795;SDS011;1913;50.660;7.834;2024-02-15T12:03:10;6.37;;;1.83;;
3795;SDS011;1913;50.660;7.834;2024-02-15T12:05:56;6.10;;;1.90;;
3795;SDS011;1913;50.660;7.834;2024-02-15T12:08:43;4.17;;;2.03;;
3795;SDS011;1913;50.660;7.834;2024-02-15T12:11:27;6.50;;;2.27;;
3795;SDS011;1913;50.660;7.834;2024-02-15T12:14:14;6.67;;;2.07;;
3795;SDS011;1913;50.660;7.834;2024-02-15T12:16:59;7.83;;;1.87;;
3795;SDS011;1913;50.660;7.834;2024-02-15T12:19:43;6.00;;;2.13;;
3795;SDS011;1913;50.660;7.834;2024-02-15T12:22:08;5.70;;;2.47;;
3795;SDS011;1913;50.660;7.834;2024-02-15T12:24:34;3.47;;;1.83;;
3795;SDS011;1913;50.660;7.834;2024-02-15T12:27:00;5.53;;;2.13;;
3795;SDS011;1913;50.660;7.834;2024-02-15T12:29:29;7.33;;;2.17;;
3795;SDS011;1913;50.660;7.834;2024-02-15T12:31:54;5.20;;;2.40;;
3795;SDS011;1913;50.660;7.834;2024-02-15T12:34:20;6.23;;;2.00;;
3795;SDS011;1913;50.660;7.834;2024-02-15T12:36:45;5.73;;;1.90;;
3795;SDS011;1913;50.660;7.834;2024-02-15T12:39:11;4.17;;;2.23;;
3795;SDS011;1913;50.660;7.834;2024-02-15T12:41:38;7.87;;;2.33;;
3795;SDS011;1913;50.660;7.834;2024-02-15T12:44:05;4.93;;;1.70;;
3795;SDS011;1913;50.660;7.834;2024-02-15T12:46:30;6.13;;;2.43;;
3795;SDS011;1913;50.660;7.834;2024-02-15T12:49:09;3.87;;;1.83;;
3795;SDS011;1913;50.660;7.834;2024-02-15T12:51:38;6.90;;;1.70;;
3795;SDS011;1913;50.660;7.834;2024-02-15T12:54:09;7.00;;;2.07;;
3795;SDS011;1913;50.660;7.834;2024-02-15T12:56:36;6.00;;;1.90;;
3795;SDS011;1913;50.660;7.834;2024-02-15T12:59:01;4.90;;;2.13;;
3795;SDS011;1913;50.660;7.834;2024-02-15T13:01:27;4.43;;;2.20;;
3795;SDS011;1913;50.660;7.834;2024-02-15T13:03:53;6.80;;;2.43;;
3795;SDS011;1913;50.660;7.834;2024-02-15T13:06:19;9.80;;;2.20;;
3795;SDS011;1913;50.660;7.834;2024-02-15T13:08:48;7.07;;;2.33;;
3795;SDS011;1913;50.660;7.834;2024-02-15T13:11:13;3.67;;;2.10;;
3795;SDS011;1913;50.660;7.834;2024-02-15T13:13:40;5.17;;;2.17;;
3795;SDS011;1913;50.660;7.834;2024-02-15T13:16:07;6.70;;;1.70;;
3795;SDS011;1913;50.660;7.834;2024-02-15T13:18:32;3.67;;;1.73;;
3795;SDS011;1913;50.660;7.834;2024-02-15T13:20:57;6.57;;;2.00;;
3795;SDS011;1913;50.660;7.834;2024-02-15T13:23:23;4.27;;;1.80;;
3795;SDS011;1913;50.660;7.834;2024-02-15T13:25:50;4.60;;;1.90;;
3795;SDS011;1913;50.660;7.834;2024-02-15T13:28:17;3.13;;;1.97;;
3795;SDS011;1913;50.660;7.834;2024-02-15T13:30:43;7.53;;;2.20;;
3795;SDS011;1913;50.660;7.834;2024-02-15T13:33:10;7.00;;;2.00;;
3795;SDS011;1913;50.660;7.834;2024-02-15T13:35:35;6.90;;;1.73;;
3795;SDS011;1913;50.660;7.834;2024-02-15T13:38:01;3.40;;;1.60;;
3795;SDS011;1913;50.660;7.834;2024-02-15T13:40:27;8.93;;;2.10;;
3795;SDS011;1913;50.660;7.834;2024-02-15T13:42:56;9.23;;;2.40;;
3795;SDS011;1913;50.660;7.834;2024-02-15T13:45:39;5.47;;;2.17;;
3795;SDS011;1913;50.660;7.834;2024-02-15T13:48:05;8.03;;;1.70;;
3795;SDS011;1913;50.660;7.834;2024-02-15T13:50:32;7.37;;;2.37;;
3795;SDS011;1913;50.660;7.834;2024-02-15T13:52:57;4.37;;;2.00;;
3795;SDS011;1913;50.660;7.834;2024-02-15T13:55:23;5.73;;;1.83;;
3795;SDS011;1913;50.660;7.834;2024-02-15T13:57:50;11.93;;;2.50;;
3795;SDS011;1913;50.660;7.834;2024-02-15T14:00:15;3.10;;;1.70;;
3795;SDS011;1913;50.660;7.834;2024-02-15T14:02:48;2.40;;;1.60;;
3795;SDS011;1913;50.660;7.834;2024-02-15T14:05:13;4.87;;;2.00;;
3795;SDS011;1913;50.660;7.834;2024-02-15T14:07:38;3.07;;;1.40;;
3795;SDS011;1913;50.660;7.834;2024-02-15T14:10:05;3.63;;;1.70;;
3795;SDS011;1913;50.660;7.834;2024-02-15T14:12:30;4.97;;;1.83;;
3795;SDS011;1913;50.660;7.834;2024-02-15T14:14:55;6.03;;;2.40;;
3795;SDS011;1913;50.660;7.834;2024-02-15T14:17:21;5.90;;;1.97;;
3795;SDS011;1913;50.660;7.834;2024-02-15T14:19:49;4.57;;;1.93;;
3795;SDS011;1913;50.660;7.834;2024-02-15T14:22:15;2.40;;;1.43;;
3795;SDS011;1913;50.660;7.834;2024-02-15T14:24:43;5.00;;;1.77;;
3795;SDS011;1913;50.660;7.834;2024-02-15T14:27:09;4.10;;;1.60;;
3795;SDS011;1913;50.660;7.834;2024-02-15T14:29:34;6.03;;;2.10;;
3795;SDS011;1913;50.660;7.834;2024-02-15T14:32:02;4.10;;;1.80;;
3795;SDS011;1913;50.660;7.834;2024-02-15T14:34:46;3.87;;;1.70;;
3795;SDS011;1913;50.660;7.834;2024-02-15T14:37:11;4.73;;;1.60;;
3795;SDS011;1913;50.660;7.834;2024-02-15T14:42:04;6.10;;;1.80;;
3795;SDS011;1913;50.660;7.834;2024-02-15T14:44:29;4.20;;;1.50;;
3795;SDS011;1913;50.660;7.834;2024-02-15T14:46:55;2.20;;;1.40;;
3795;SDS011;1913;50.660;7.834;2024-02-15T14:49:20;5.27;;;2.10;;
3795;SDS011;1913;50.660;7.834;2024-02-15T14:51:47;10.37;;;2.10;;
3795;SDS011;1913;50.660;7.834;2024-02-15T14:54:14;10.07;;;1.70;;
3795;SDS011;1913;50.660;7.834;2024-02-15T14:56:39;6.37;;;2.20;;
3795;SDS011;1913;50.660;7.834;2024-02-15T14:59:05;2.90;;;1.70;;
3795;SDS011;1913;50.660;7.834;2024-02-15T15:01:30;6.83;;;2.23;;
3795;SDS011;1913;50.660;7.834;2024-02-15T15:03:55;4.30;;;2.00;;
3795;SDS011;1913;50.660;7.834;2024-02-15T15:06:22;4.73;;;1.83;;
3795;SDS011;1913;50.660;7.834;2024-02-15T15:09:06;11.83;;;2.00;;
3795;SDS011;1913;50.660;7.834;2024-02-15T15:11:50;6.13;;;1.40;;
3795;SDS011;1913;50.660;7.834;2024-02-15T15:14:34;5.13;;;2.00;;
3795;SDS011;1913;50.660;7.834;2024-02-15T15:16:59;5.43;;;1.80;;
3795;SDS011;1913;50.660;7.834;2024-02-15T15:19:25;3.97;;;1.90;;